Time;durP1;ratioP1;P1;durP2;ratioP2;P2;SDS_P1;SDS_P2;PMS_P1;PMS_P2;Temp;Humidity;BMP_temperature;BMP_pressure;BME280_temperature;BME280_humidity;BME280_pressure;Samples;Min_cycle;Max_cycle;Signal;HPM_P1;HPM_P2
2022/01/23 00:00:39;;;;;;;5.85;1.92;;;5.90;99.90;;;;;;5006230;28;20032;-71
2022/01/23 00:03:09;;;;;;;14.95;2.63;;;5.90;99.90;;;;;;5004775;28;20074;-70
2022/01/23 00:05:39;;;;;;;9.52;2.15;;;5.90;99.90;;;;;;5006471;28;20054;-70
2022/01/23 00:08:05;;;;;;;6.45;2.30;;;5.90;99.90;;;;;;5004743;28;20041;-69
2022/01/23 00:10:32;;;;;;;6.07;1.88;;;5.80;99.90;;;;;;5005796;28;20030;-71
2022/01/23 00:18:37;;;;;;;3.33;1.65;;;5.80;99.90;;;;;;5006258;28;20045;-73
2022/01/23 00:21:03;;;;;;;3.85;1.85;;;5.80;99.90;;;;;;5005656;28;20086;-72
2022/01/23 00:31:43;;;;;;;5.00;2.13;;;5.80;99.90;;;;;;5006051;28;20041;-72
2022/01/23 00:34:10;;;;;;;7.68;2.28;;;5.80;99.90;;;;;;4988437;28;20030;-72
2022/01/23 00:36:36;;;;;;;4.40;2.30;;;5.80;99.90;;;;;;5005287;28;20052;-72
2022/01/23 00:39:02;;;;;;;5.93;1.65;;;5.80;99.90;;;;;;5004488;28;20475;-71
2022/01/23 00:41:28;;;;;;;5.70;2.85;;;5.80;99.90;;;;;;5005565;28;20368;-69
2022/01/23 00:43:54;;;;;;;4.75;2.47;;;5.80;99.90;;;;;;5005185;28;20061;-72
2022/01/23 00:46:23;;;;;;;3.83;1.55;;;5.90;99.90;;;;;;5004157;28;20038;-72
2022/01/23 00:51:22;;;;;;;6.30;2.42;;;5.80;99.90;;;;;;5005385;28;20042;-74
2022/01/23 00:53:48;;;;;;;5.45;2.85;;;5.80;99.90;;;;;;5004230;28;20022;-72
2022/01/23 00:56:14;;;;;;;11.77;2.50;;;5.80;99.90;;;;;;5005497;28;20066;-73
2022/01/23 00:58:40;;;;;;;4.22;1.80;;;5.80;99.90;;;;;;5005367;28;20463;-71
2022/01/23 01:01:06;;;;;;;5.25;2.35;;;5.80;99.90;;;;;;5005319;28;20489;-72
2022/01/23 01:03:31;;;;;;;7.43;2.47;;;5.80;99.90;;;;;;5003371;28;20043;-73
2022/01/23 01:05:57;;;;;;;6.57;1.80;;;5.70;99.90;;;;;;5004075;28;20038;-72
2022/01/23 01:08:23;;;;;;;3.47;1.83;;;5.80;99.90;;;;;;5005309;28;20038;-74
2022/01/23 01:11:00;;;;;;;3.95;1.88;;;5.80;99.90;;;;;;5004726;28;20033;-75
2022/01/23 01:13:50;;;;;;;17.08;3.30;;;5.70;99.90;;;;;;5005160;28;20018;-74
2022/01/23 01:35:23;;;;;;;2.80;1.67;;;5.70;99.90;;;;;;4989631;28;20142;-73
2022/01/23 01:37:49;;;;;;;2.70;1.50;;;5.70;99.90;;;;;;4971838;28;20047;-73
2022/01/23 01:40:15;;;;;;;8.45;1.90;;;5.60;99.90;;;;;;4987686;28;20090;-73
2022/01/23 01:42:43;;;;;;;5.55;2.13;;;5.70;99.90;;;;;;4989603;28;20027;-72
2022/01/23 01:45:10;;;;;;;3.05;1.25;;;5.60;99.90;;;;;;4989818;28;20049;-72
2022/01/23 01:48:00;;;;;;;3.83;1.90;;;5.60;99.90;;;;;;4988537;28;20054;-72
2022/01/23 01:50:26;;;;;;;2.63;1.67;;;5.60;99.90;;;;;;4999855;28;20102;-72
2022/01/23 01:52:51;;;;;;;3.85;1.52;;;5.60;99.90;;;;;;5007840;28;20022;-71
2022/01/23 01:55:24;;;;;;;3.58;1.63;;;5.60;99.90;;;;;;5007839;28;20329;-73
2022/01/23 01:57:55;;;;;;;4.57;1.98;;;5.50;99.90;;;;;;5006850;28;20038;-73
2022/01/23 02:02:38;;;;;;;5.32;1.88;;;5.50;99.90;;;;;;5006831;28;20113;-73
2022/01/23 02:03:35;;;;;;;5.00;1.92;;;5.50;99.90;;;;;;5004083;28;20045;-73
2022/01/23 02:08:38;;;;;;;11.23;2.53;;;5.50;99.90;;;;;;5007241;28;20094;-71
2022/01/23 02:11:16;;;;;;;2.50;1.40;;;5.50;99.90;;;;;;5008052;28;20030;-74
2022/01/23 02:13:49;;;;;;;5.78;2.65;;;5.50;99.90;;;;;;4990525;28;20394;-72
2022/01/23 06:50:24;;;;;;;5.55;1.73;;;5.80;99.90;;;;;;5430102;22;20085;-72
2022/01/23 06:52:59;;;;;;;10.18;2.67;;;5.80;99.90;;;;;;5000771;28;20046;-72
2022/01/23 06:55:25;;;;;;;13.02;2.60;;;5.80;99.90;;;;;;5007010;28;20433;-72
2022/01/23 06:57:51;;;;;;;5.30;1.83;;;5.80;99.90;;;;;;5007619;28;20083;-72
2022/01/23 07:00:17;;;;;;;8.07;2.25;;;5.80;99.90;;;;;;4990314;28;20034;-72
2022/01/23 07:02:42;;;;;;;3.00;1.65;;;5.80;99.90;;;;;;5007178;28;20084;-73
2022/01/23 07:05:08;;;;;;;8.05;2.03;;;5.80;99.90;;;;;;5007211;28;20031;-72
2022/01/23 07:07:34;;;;;;;2.80;1.67;;;5.80;99.90;;;;;;5000785;28;20027;-73
2022/01/23 07:10:00;;;;;;;4.93;1.60;;;5.80;99.90;;;;;;5004814;28;20041;-72
2022/01/23 07:12:25;;;;;;;3.85;1.92;;;5.80;99.90;;;;;;4988724;28;20523;-75
2022/01/23 07:15:00;;;;;;;4.43;2.63;;;5.80;99.90;;;;;;5007261;28;20038;-75
2022/01/23 07:17:26;;;;;;;3.50;1.55;;;5.80;99.90;;;;;;4989551;28;20073;-73
2022/01/23 07:19:52;;;;;;;8.43;1.88;;;5.80;99.90;;;;;;5007011;28;20073;-74
2022/01/23 07:22:17;;;;;;;6.68;2.22;;;5.80;99.90;;;;;;5007035;28;20034;-72
2022/01/23 07:24:43;;;;;;;5.20;1.75;;;5.80;99.90;;;;;;5006774;28;20030;-72
2022/01/23 07:27:29;;;;;;;4.60;1.80;;;5.70;99.90;;;;;;5007075;28;20077;-73
2022/01/23 07:29:55;;;;;;;2.72;1.38;;;5.80;99.90;;;;;;4983869;28;20034;-74
2022/01/23 07:32:21;;;;;;;5.53;1.75;;;5.80;99.90;;;;;;4990415;28;20019;-74
2022/01/23 07:34:46;;;;;;;3.03;1.85;;;5.80;99.90;;;;;;5006998;28;20089;-73
2022/01/23 07:37:13;;;;;;;5.43;2.08;;;5.80;99.90;;;;;;5006563;28;20054;-73
2022/01/23 07:39:39;;;;;;;6.05;1.52;;;5.80;99.90;;;;;;5006639;28;20019;-73
2022/01/23 07:42:05;;;;;;;3.60;1.92;;;5.90;99.90;;;;;;5004094;28;20022;-73
2022/01/23 07:44:31;;;;;;;6.40;1.33;;;5.80;99.90;;;;;;5005874;28;20426;-74
2022/01/23 07:46:57;;;;;;;7.22;1.65;;;5.80;99.90;;;;;;5006456;28;20027;-73
2022/01/23 07:49:23;;;;;;;7.05;2.15;;;5.80;99.90;;;;;;4986875;28;20027;-75
2022/01/23 07:51:50;;;;;;;6.20;1.30;;;5.80;99.90;;;;;;4968860;28;20055;-74
2022/01/23 07:54:16;;;;;;;4.20;1.85;;;5.90;99.90;;;;;;4969976;28;20402;-72
2022/01/23 07:56:42;;;;;;;2.55;1.30;;;6.00;99.90;;;;;;4969275;28;20548;-72
2022/01/23 07:59:11;;;;;;;5.57;2.17;;;5.90;99.90;;;;;;4966384;28;20039;-72
2022/01/23 08:01:40;;;;;;;2.17;1.45;;;5.90;99.90;;;;;;4986026;28;20035;-73
2022/01/23 08:04:09;;;;;;;7.30;2.00;;;5.90;99.90;;;;;;4986291;28;20054;-73
2022/01/23 08:06:41;;;;;;;3.55;1.50;;;5.90;99.90;;;;;;4962225;28;20034;-73
2022/01/23 08:09:08;;;;;;;11.05;2.50;;;5.90;99.90;;;;;;4963976;28;20028;-74
2022/01/23 08:11:33;;;;;;;3.08;0.90;;;5.90;99.90;;;;;;4974675;28;20077;-73
2022/01/23 08:13:59;;;;;;;10.20;1.55;;;5.90;99.90;;;;;;4985875;28;20402;-73
2022/01/23 08:16:26;;;;;;;3.53;1.85;;;5.90;99.90;;;;;;4969126;28;20494;-73
2022/01/23 08:18:52;;;;;;;3.80;1.67;;;6.00;99.90;;;;;;4986512;28;20035;-73
2022/01/23 08:21:17;;;;;;;2.60;1.67;;;6.00;99.90;;;;;;4968240;28;20058;-75
2022/01/23 08:23:43;;;;;;;2.95;1.70;;;6.00;99.90;;;;;;4985901;28;20042;-73
2022/01/23 08:26:09;;;;;;;2.05;1.33;;;6.00;99.90;;;;;;4983848;28;20119;-73
2022/01/23 08:28:35;;;;;;;6.65;1.27;;;6.00;99.90;;;;;;4985859;28;20031;-74
2022/01/23 08:31:01;;;;;;;3.92;1.88;;;6.10;99.90;;;;;;4986725;28;20529;-74
2022/01/23 08:33:27;;;;;;;15.38;1.80;;;6.10;99.90;;;;;;4985493;28;20031;-75
2022/01/23 08:35:57;;;;;;;5.45;1.40;;;6.00;99.90;;;;;;4985161;28;20027;-75
2022/01/23 08:38:24;;;;;;;3.78;1.95;;;6.20;99.90;;;;;;4968331;28;20058;-73
2022/01/23 08:43:36;;;;;;;3.17;1.73;;;6.10;99.90;;;;;;4985868;28;20065;-74
2022/01/23 08:46:02;;;;;;;3.47;1.33;;;6.10;99.90;;;;;;4985458;28;20034;-73
2022/01/23 08:48:27;;;;;;;2.08;1.10;;;6.20;99.90;;;;;;4985691;28;20037;-74
2022/01/23 08:50:54;;;;;;;2.70;1.30;;;6.20;99.90;;;;;;4984828;28;20030;-75
2022/01/23 08:53:20;;;;;;;3.70;2.22;;;6.20;99.90;;;;;;4968628;28;20130;-73
2022/01/23 08:55:47;;;;;;;3.38;1.52;;;6.30;99.90;;;;;;4967735;28;20027;-74
2022/01/23 08:58:14;;;;;;;1.00;0.63;;;6.30;99.90;;;;;;4984440;28;20462;-73
2022/01/23 09:00:40;;;;;;;4.47;1.80;;;6.30;99.90;;;;;;4984655;28;20031;-74
2022/01/23 09:03:05;;;;;;;2.67;1.35;;;6.30;99.90;;;;;;4984744;28;20120;-74
2022/01/23 09:05:31;;;;;;;5.85;1.77;;;6.40;99.90;;;;;;4953580;28;20031;-74
2022/01/23 09:07:57;;;;;;;2.70;1.30;;;6.50;99.90;;;;;;4983525;28;20026;-75
2022/01/23 09:10:26;;;;;;;3.22;1.08;;;6.50;99.90;;;;;;4977279;28;20031;-76
2022/01/23 09:13:06;;;;;;;3.95;2.08;;;6.60;99.90;;;;;;4985644;28;20018;-73
2022/01/23 09:15:32;;;;;;;5.65;2.10;;;6.70;99.90;;;;;;4985097;28;20058;-74
2022/01/23 09:17:58;;;;;;;3.53;1.50;;;6.80;99.90;;;;;;4985418;28;20047;-72
2022/01/23 09:20:26;;;;;;;2.95;1.60;;;6.80;99.90;;;;;;4984315;28;20038;-73
2022/01/23 09:22:51;;;;;;;2.40;1.75;;;6.80;99.90;;;;;;4985420;28;20035;-74
2022/01/23 09:25:18;;;;;;;4.05;1.80;;;6.80;99.90;;;;;;4985197;28;20061;-74
2022/01/23 09:27:43;;;;;;;10.90;2.35;;;6.90;99.90;;;;;;4984139;28;20035;-73
2022/01/23 09:30:17;;;;;;;4.40;1.50;;;6.90;99.90;;;;;;4985026;28;20861;-75
2022/01/23 09:32:44;;;;;;;6.57;1.65;;;6.90;99.90;;;;;;4984829;28;20099;-74
2022/01/23 09:35:11;;;;;;;2.72;0.85;;;6.90;99.90;;;;;;4976013;28;20104;-73
2022/01/23 09:37:37;;;;;;;3.78;1.52;;;6.90;99.90;;;;;;4985019;28;20038;-73
2022/01/23 09:40:05;;;;;;;2.47;1.38;;;6.80;99.90;;;;;;4979065;28;20034;-74
2022/01/23 09:42:43;;;;;;;1.65;1.00;;;6.80;99.90;;;;;;4960536;28;20392;-73
2022/01/23 09:45:12;;;;;;;5.20;1.38;;;6.80;99.90;;;;;;4965771;28;20502;-74
2022/01/23 09:47:43;;;;;;;3.90;1.73;;;6.90;99.90;;;;;;4985727;28;20031;-74
2022/01/23 09:50:17;;;;;;;2.40;1.20;;;6.90;99.90;;;;;;4979969;28;20526;-76
2022/01/23 09:52:43;;;;;;;3.78;1.83;;;6.90;99.90;;;;;;4968555;28;20058;-75
2022/01/23 09:55:12;;;;;;;4.70;1.15;;;6.90;99.90;;;;;;4990245;28;20046;-74
2022/01/23 09:57:41;;;;;;;3.20;1.63;;;6.80;99.90;;;;;;4983405;28;20542;-75
2022/01/23 10:00:13;;;;;;;2.05;1.40;;;6.90;99.90;;;;;;4989294;28;20031;-76
2022/01/23 10:02:40;;;;;;;4.10;1.95;;;6.90;99.90;;;;;;4976680;28;20054;-74
2022/01/23 10:05:07;;;;;;;2.63;1.05;;;7.10;99.90;;;;;;4985466;28;20062;-72
2022/01/23 10:07:38;;;;;;;3.03;1.30;;;7.00;99.90;;;;;;4983868;28;20034;-74
2022/01/23 10:10:10;;;;;;;3.00;1.48;;;7.00;99.90;;;;;;4970047;28;20091;-75
2022/01/23 10:12:42;;;;;;;2.78;1.38;;;7.00;99.90;;;;;;4988217;28;20026;-74
2022/01/23 10:15:09;;;;;;;3.92;1.42;;;7.10;99.90;;;;;;4971457;28;20027;-75
2022/01/23 10:17:35;;;;;;;1.73;1.10;;;7.00;99.90;;;;;;4988585;28;20067;-75
2022/01/23 10:20:06;;;;;;;6.57;1.88;;;7.10;99.90;;;;;;4987882;28;20022;-73
2022/01/23 10:22:34;;;;;;;4.15;1.27;;;7.10;99.90;;;;;;4987219;28;20043;-73
2022/01/23 10:25:40;;;;;;;3.35;1.23;;;7.10;99.90;;;;;;4987155;28;20434;-75
2022/01/23 10:28:09;;;;;;;5.00;0.90;;;7.20;99.90;;;;;;4959367;28;20062;-73
2022/01/23 10:30:42;;;;;;;9.35;1.67;;;7.20;99.90;;;;;;4970172;28;20053;-73
2022/01/23 10:33:14;;;;;;;8.52;1.42;;;7.20;99.90;;;;;;4970419;28;20023;-74
2022/01/23 10:35:57;;;;;;;1.60;1.02;;;7.30;99.90;;;;;;4987676;28;20078;-74
2022/01/23 10:38:26;;;;;;;2.88;0.80;;;7.30;99.90;;;;;;4987401;28;20035;-73
2022/01/23 10:41:24;;;;;;;4.05;1.08;;;7.30;99.90;;;;;;4986830;28;20109;-73
2022/01/23 10:49:55;;;;;;;2.03;1.27;;;7.60;99.90;;;;;;4987781;28;20490;-74
2022/01/23 10:52:45;;;;;;;3.63;1.77;;;7.60;99.90;;;;;;4987279;28;20160;-75
2022/01/23 10:55:11;;;;;;;1.25;0.80;;;7.50;99.90;;;;;;4987451;28;20027;-75
2022/01/23 10:57:38;;;;;;;7.53;1.27;;;7.50;99.90;;;;;;4970139;28;20039;-75
2022/01/23 11:00:08;;;;;;;3.67;1.42;;;7.50;99.90;;;;;;4987349;28;20031;-72
2022/01/23 11:02:39;;;;;;;2.33;1.13;;;7.50;99.90;;;;;;4987472;28;20023;-75
2022/01/23 11:05:07;;;;;;;3.33;1.52;;;7.50;99.90;;;;;;4968690;28;20027;-72
2022/01/23 11:07:33;;;;;;;3.33;1.83;;;7.60;99.90;;;;;;4987013;28;20082;-73
2022/01/23 11:10:03;;;;;;;2.25;1.30;;;7.60;99.90;;;;;;4986522;28;20027;-73
2022/01/23 11:17:21;;;;;;;4.65;1.17;;;7.70;99.90;;;;;;4987055;28;20034;-73
2022/01/23 11:18:32;;;;;;;4.05;1.65;;;7.70;99.90;;;;;;4987025;28;20071;-74
2022/01/23 11:21:14;;;;;;;3.08;1.27;;;7.70;99.90;;;;;;4985987;28;20042;-76
2022/01/23 11:23:40;;;;;;;3.92;1.60;;;7.80;99.90;;;;;;4986399;28;20085;-73
2022/01/23 11:26:08;;;;;;;2.85;1.50;;;7.80;99.90;;;;;;4980846;28;20031;-74
2022/01/23 11:28:39;;;;;;;4.72;2.03;;;7.80;99.90;;;;;;4978227;28;20042;-74
2022/01/23 11:31:08;;;;;;;2.40;1.52;;;7.80;99.90;;;;;;4967441;28;20043;-72
2022/01/23 11:33:33;;;;;;;2.35;1.40;;;7.80;99.90;;;;;;4985498;28;20023;-74
2022/01/23 11:36:01;;;;;;;3.53;1.77;;;7.80;99.90;;;;;;4985685;28;20030;-73
2022/01/23 11:38:31;;;;;;;3.25;1.27;;;7.90;99.90;;;;;;4965347;28;20035;-73
2022/01/23 11:55:33;;;;;;;9.52;1.33;;;7.90;99.90;;;;;;4975976;28;20033;-74
2022/01/23 11:57:58;;;;;;;2.75;1.05;;;7.90;99.90;;;;;;4985299;28;20043;-73
2022/01/23 12:00:28;;;;;;;1.40;1.05;;;7.90;99.90;;;;;;4985843;28;20452;-74
2022/01/23 12:03:21;;;;;;;0.88;0.52;;;8.00;99.90;;;;;;4985792;28;20027;-73
2022/01/23 12:06:07;;;;;;;4.68;0.63;;;7.90;99.90;;;;;;4985044;28;20121;-73
2022/01/23 12:08:36;;;;;;;3.03;0.70;;;8.00;99.90;;;;;;4985077;28;20045;-73
2022/01/23 12:17:00;;;;;;;1.65;1.00;;;8.00;99.90;;;;;;4985244;28;20084;-77
2022/01/23 12:19:29;;;;;;;3.38;1.05;;;8.00;99.90;;;;;;4984165;28;20034;-74
2022/01/23 12:21:58;;;;;;;1.40;0.80;;;8.00;99.90;;;;;;4985493;28;20062;-77
2022/01/23 12:24:25;;;;;;;2.33;1.05;;;8.00;99.90;;;;;;4985383;28;20058;-76
2022/01/23 12:27:12;;;;;;;2.15;1.10;;;8.10;99.90;;;;;;4983937;28;20034;-75
2022/01/23 12:29:38;;;;;;;2.95;0.45;;;8.00;99.90;;;;;;4985108;28;20041;-74
2022/01/23 12:32:31;;;;;;;5.15;0.70;;;8.10;99.90;;;;;;4979825;28;20027;-74
2022/01/23 12:35:03;;;;;;;1.73;1.08;;;8.30;99.90;;;;;;4967490;28;20035;-74
2022/01/23 12:38:02;;;;;;;2.63;1.27;;;8.20;99.90;;;;;;4965663;28;20039;-76
2022/01/23 12:40:32;;;;;;;2.15;1.02;;;8.20;99.90;;;;;;4959188;28;20054;-75
2022/01/23 12:43:21;;;;;;;4.20;1.45;;;8.20;99.90;;;;;;4965474;28;20094;-78
2022/01/23 12:46:08;;;;;;;2.00;0.70;;;8.20;99.90;;;;;;4965846;28;20369;-74
2022/01/23 12:48:39;;;;;;;1.48;1.10;;;8.10;99.90;;;;;;4965434;29;20031;-74
2022/01/23 12:51:30;;;;;;;1.77;1.05;;;8.20;99.90;;;;;;4967690;28;20177;-74
2022/01/23 12:53:56;;;;;;;1.55;0.70;;;8.20;99.90;;;;;;4967248;28;20033;-75
2022/01/23 12:56:30;;;;;;;1.08;0.50;;;8.20;99.90;;;;;;4966935;28;20098;-76
2022/01/23 12:59:09;;;;;;;1.27;0.80;;;8.20;99.90;;;;;;4967219;28;20027;-75
2022/01/23 13:01:37;;;;;;;1.40;0.80;;;8.20;99.90;;;;;;4984445;28;20026;-75
2022/01/23 13:04:05;;;;;;;3.25;1.08;;;8.20;99.90;;;;;;4984660;28;20512;-77
2022/01/23 13:06:35;;;;;;;1.13;0.43;;;8.10;99.90;;;;;;4984487;28;20075;-74
2022/01/23 13:09:53;;;;;;;1.92;0.77;;;8.10;99.90;;;;;;4984285;28;20086;-76
2022/01/23 13:31:49;;;;;;;3.85;1.10;;;8.10;99.90;;;;;;4984394;28;20103;-74
2022/01/23 13:34:38;;;;;;;3.15;1.95;;;8.10;99.90;;;;;;4966710;28;20396;-73
2022/01/23 13:37:07;;;;;;;2.92;1.10;;;8.10;99.90;;;;;;4981215;28;20049;-75
2022/01/23 13:39:40;;;;;;;2.35;0.93;;;8.10;99.90;;;;;;4980772;28;20035;-73
2022/01/23 13:51:39;;;;;;;2.30;0.80;;;8.00;99.90;;;;;;4973351;28;20062;-75
2022/01/23 13:59:44;;;;;;;0.73;0.50;;;7.90;99.90;;;;;;4965016;28;20038;-73
2022/01/23 14:02:17;;;;;;;0.75;0.55;;;7.90;99.90;;;;;;4965560;28;20031;-74
2022/01/23 14:04:51;;;;;;;3.33;0.90;;;7.90;99.90;;;;;;4957557;28;20027;-73
2022/01/23 14:07:20;;;;;;;2.30;0.90;;;7.90;99.90;;;;;;4975485;28;20107;-76
2022/01/23 14:09:47;;;;;;;3.03;1.35;;;7.90;99.90;;;;;;4975981;28;20324;-71
2022/01/23 14:12:17;;;;;;;3.33;0.88;;;7.80;99.90;;;;;;4975846;28;20045;-74
2022/01/23 14:15:00;;;;;;;1.98;1.00;;;7.90;99.90;;;;;;4984154;28;20125;-73
2022/01/23 14:17:39;;;;;;;1.87;0.87;;;7.90;99.90;;;;;;4964262;28;20413;-75
2022/01/23 14:20:13;;;;;;;2.60;1.20;;;7.80;99.90;;;;;;4983834;28;20101;-75
2022/01/23 14:22:42;;;;;;;3.70;1.25;;;7.80;99.90;;;;;;4987684;28;20107;-76
2022/01/23 14:25:12;;;;;;;2.35;1.33;;;7.80;99.90;;;;;;4983417;28;20022;-76
2022/01/23 14:27:38;;;;;;;1.65;0.85;;;7.80;99.90;;;;;;4982958;28;20446;-74
2022/01/23 14:30:07;;;;;;;4.50;1.52;;;7.80;99.90;;;;;;4962058;28;20062;-73
2022/01/23 14:32:51;;;;;;;3.67;1.58;;;7.80;99.90;;;;;;4964912;28;20027;-76
2022/01/23 14:35:31;;;;;;;2.63;1.00;;;7.80;99.90;;;;;;4981043;28;20430;-73
2022/01/23 14:38:20;;;;;;;3.22;1.13;;;7.80;99.90;;;;;;4974353;28;20032;-77
2022/01/23 14:40:57;;;;;;;2.88;1.38;;;7.80;99.90;;;;;;4992480;28;20023;-73
2022/01/23 14:43:44;;;;;;;4.53;1.35;;;7.80;99.90;;;;;;4979310;28;20034;-74
2022/01/23 14:46:11;;;;;;;3.00;1.13;;;7.80;99.90;;;;;;4985983;28;20042;-73
2022/01/23 14:48:45;;;;;;;3.38;1.30;;;7.80;99.90;;;;;;4968364;28;20083;-74
2022/01/23 14:51:16;;;;;;;2.65;1.00;;;7.80;99.90;;;;;;4990814;28;20110;-73
2022/01/23 14:53:41;;;;;;;6.78;1.33;;;7.80;99.90;;;;;;4988955;28;20080;-75
2022/01/23 14:56:13;;;;;;;6.72;1.33;;;7.90;99.90;;;;;;5006791;28;20442;-73
2022/01/23 14:58:40;;;;;;;5.82;2.33;;;7.80;99.90;;;;;;4996296;28;20055;-76
2022/01/23 15:01:10;;;;;;;6.35;2.40;;;7.80;99.90;;;;;;4972957;28;20064;-73
2022/01/23 15:03:36;;;;;;;1.55;1.10;;;7.70;99.90;;;;;;4975312;28;20061;-73
2022/01/23 15:06:02;;;;;;;2.95;1.30;;;7.70;99.90;;;;;;4980152;28;20035;-73
2022/01/23 15:08:29;;;;;;;2.28;1.10;;;7.70;99.90;;;;;;4983282;28;20026;-74
2022/01/23 15:10:58;;;;;;;3.85;1.20;;;7.70;99.90;;;;;;4985741;28;20832;-74
2022/01/23 15:13:26;;;;;;;1.88;0.88;;;7.70;99.90;;;;;;4968413;28;20041;-74
2022/01/23 15:15:53;;;;;;;3.67;1.33;;;7.70;99.90;;;;;;4973598;28;20020;-74
2022/01/23 15:18:21;;;;;;;1.85;0.70;;;7.60;99.90;;;;;;4977204;28;20036;-74
2022/01/23 15:20:48;;;;;;;2.22;0.95;;;7.60;99.90;;;;;;4998007;28;20026;-73
2022/01/23 15:23:15;;;;;;;5.50;1.10;;;7.60;99.90;;;;;;4986463;28;20030;-74
2022/01/23 15:25:43;;;;;;;1.35;1.00;;;7.60;99.90;;;;;;4986002;28;20031;-74
2022/01/23 15:28:10;;;;;;;2.33;1.50;;;7.60;99.90;;;;;;4986252;28;20053;-72
2022/01/23 15:30:38;;;;;;;6.10;1.85;;;7.60;99.90;;;;;;4986779;28;20027;-72
2022/01/23 15:33:06;;;;;;;1.80;1.05;;;7.60;99.90;;;;;;4986165;28;20022;-73
2022/01/23 15:35:33;;;;;;;4.32;1.48;;;7.60;99.90;;;;;;4985750;28;20118;-72
2022/01/23 15:37:59;;;;;;;1.92;1.30;;;7.60;99.90;;;;;;4968637;28;20046;-72
2022/01/23 15:40:24;;;;;;;1.45;1.15;;;7.60;99.90;;;;;;4980175;28;20356;-74
2022/01/23 15:42:54;;;;;;;1.23;0.70;;;7.60;99.90;;;;;;4981984;28;20050;-73
2022/01/23 15:45:21;;;;;;;4.45;1.33;;;7.60;99.90;;;;;;4980322;28;20023;-74
2022/01/23 15:47:48;;;;;;;4.53;1.52;;;7.60;99.90;;;;;;4967196;28;20058;-72
2022/01/23 15:50:16;;;;;;;1.92;0.85;;;7.50;99.90;;;;;;4966342;28;20035;-74
2022/01/23 15:52:42;;;;;;;1.20;0.57;;;7.50;99.90;;;;;;4977393;28;20126;-73
2022/01/23 15:55:10;;;;;;;5.13;1.75;;;7.50;99.90;;;;;;4986059;28;20026;-74
2022/01/23 15:57:37;;;;;;;5.38;1.40;;;7.50;99.90;;;;;;4986062;28;20069;-72
2022/01/23 16:00:06;;;;;;;4.57;1.65;;;7.50;99.90;;;;;;4978024;28;20062;-73
2022/01/23 16:02:31;;;;;;;3.85;1.85;;;7.50;99.90;;;;;;4985572;28;20074;-72
2022/01/23 16:04:59;;;;;;;2.55;1.55;;;7.50;99.90;;;;;;4986446;28;20030;-72
2022/01/23 16:07:28;;;;;;;2.13;1.23;;;7.50;99.90;;;;;;4967823;28;20085;-75
2022/01/23 16:09:55;;;;;;;6.20;1.65;;;7.40;99.90;;;;;;4978548;28;20035;-73
2022/01/23 16:12:23;;;;;;;37.15;2.28;;;7.40;99.90;;;;;;4986182;28;20034;-73
2022/01/23 16:14:50;;;;;;;3.45;2.03;;;7.40;99.90;;;;;;4984110;28;20475;-72
2022/01/23 16:17:20;;;;;;;4.95;1.90;;;7.40;99.90;;;;;;4983814;28;20097;-74
2022/01/23 16:19:45;;;;;;;2.28;1.55;;;7.30;99.90;;;;;;4989493;28;20035;-71
2022/01/23 16:22:11;;;;;;;2.45;1.27;;;7.40;99.90;;;;;;4966926;28;20026;-72
2022/01/23 16:24:36;;;;;;;2.28;1.13;;;7.30;99.90;;;;;;4984725;28;20015;-71
2022/01/23 16:27:02;;;;;;;3.72;1.50;;;7.30;99.90;;;;;;4967186;28;20034;-75
2022/01/23 16:29:29;;;;;;;3.33;1.55;;;7.30;99.90;;;;;;4983288;28;20023;-71
2022/01/23 16:31:59;;;;;;;2.72;1.45;;;7.30;99.90;;;;;;4976246;28;20027;-74
2022/01/23 16:34:30;;;;;;;2.67;1.58;;;7.30;99.90;;;;;;4961045;28;20090;-73
2022/01/23 16:36:56;;;;;;;3.20;1.05;;;7.30;99.90;;;;;;4969239;28;20491;-72
2022/01/23 16:39:23;;;;;;;3.15;1.80;;;7.30;99.90;;;;;;4978274;28;20070;-73
2022/01/23 16:41:49;;;;;;;3.83;2.08;;;7.30;99.90;;;;;;4963633;29;20031;-74
2022/01/23 16:44:15;;;;;;;2.50;1.50;;;7.30;99.90;;;;;;4965189;28;20027;-75
2022/01/23 16:46:41;;;;;;;6.75;1.58;;;7.30;99.90;;;;;;4979558;28;20026;-71
2022/01/23 16:49:12;;;;;;;1.23;0.90;;;7.30;99.90;;;;;;4964522;28;20034;-73
2022/01/23 16:51:38;;;;;;;2.00;1.13;;;7.20;99.90;;;;;;4979493;28;20058;-72
2022/01/23 16:54:08;;;;;;;3.75;1.65;;;7.20;99.90;;;;;;4981813;28;20031;-72
2022/01/23 16:56:35;;;;;;;2.13;1.20;;;7.30;99.90;;;;;;4976515;28;20125;-71
2022/01/23 16:59:01;;;;;;;1.80;1.17;;;7.30;99.90;;;;;;4964630;28;20475;-72
2022/01/23 17:01:26;;;;;;;2.40;1.13;;;7.30;99.90;;;;;;4976563;28;20030;-73
2022/01/23 17:03:57;;;;;;;1.88;0.90;;;7.30;99.90;;;;;;4984817;28;20043;-71
2022/01/23 17:06:24;;;;;;;2.63;1.25;;;7.30;99.90;;;;;;4980424;28;20030;-74
2022/01/23 17:08:52;;;;;;;2.88;0.88;;;7.30;99.90;;;;;;4982991;28;20050;-73
2022/01/23 17:11:19;;;;;;;1.85;0.95;;;7.30;99.90;;;;;;4964047;28;20091;-73
2022/01/23 17:13:45;;;;;;;3.95;1.75;;;7.30;99.90;;;;;;4980909;28;20049;-71
2022/01/23 17:16:15;;;;;;;4.53;1.83;;;7.30;99.90;;;;;;4980788;28;20427;-72
2022/01/23 17:18:41;;;;;;;73.05;17.55;;;7.30;99.90;;;;;;4980991;28;20045;-71
2022/01/23 17:21:07;;;;;;;77.63;23.20;;;7.30;99.90;;;;;;4983518;28;20030;-71
2022/01/23 17:23:33;;;;;;;69.78;17.42;;;7.30;99.90;;;;;;4982275;28;20035;-72
2022/01/23 17:26:01;;;;;;;42.47;14.77;;;7.40;99.90;;;;;;4982844;28;20023;-73
2022/01/23 17:28:27;;;;;;;17.33;6.28;;;7.40;99.90;;;;;;4980533;28;20046;-73
2022/01/23 17:30:53;;;;;;;6.15;3.75;;;7.40;99.90;;;;;;4984115;28;20019;-72
2022/01/23 17:33:19;;;;;;;5.07;1.63;;;7.40;99.90;;;;;;4982633;28;20078;-73
2022/01/23 17:35:47;;;;;;;7.82;3.95;;;7.40;99.90;;;;;;4983843;28;20035;-73
2022/01/23 17:38:14;;;;;;;5.22;2.70;;;7.50;99.90;;;;;;4965049;28;20035;-72
2022/01/23 17:40:39;;;;;;;5.22;2.67;;;7.50;99.90;;;;;;4983117;28;20138;-70
2022/01/23 17:43:06;;;;;;;4.32;2.45;;;7.40;99.90;;;;;;4983795;28;20518;-73
2022/01/23 17:45:38;;;;;;;2.63;1.63;;;7.40;99.90;;;;;;4966353;28;20043;-73
2022/01/23 17:48:19;;;;;;;4.65;2.55;;;7.40;99.90;;;;;;4980546;28;20038;-71
2022/01/23 17:50:46;;;;;;;10.35;3.72;;;7.40;99.90;;;;;;4983550;28;20022;-72
2022/01/23 17:53:13;;;;;;;6.57;2.97;;;7.40;99.90;;;;;;4964747;28;20058;-74
2022/01/23 17:55:39;;;;;;;6.80;3.22;;;7.40;99.90;;;;;;4965719;28;20030;-72
2022/01/23 17:58:05;;;;;;;8.15;3.33;;;7.40;99.90;;;;;;4983220;28;20046;-72
2022/01/23 18:00:31;;;;;;;5.60;2.30;;;7.30;99.90;;;;;;4974790;28;20026;-73
2022/01/23 18:02:57;;;;;;;8.32;2.85;;;7.30;99.90;;;;;;4963347;29;20038;-74
2022/01/23 18:05:25;;;;;;;5.25;2.85;;;7.30;99.90;;;;;;4964764;28;20132;-73
2022/01/23 18:07:58;;;;;;;7.10;2.88;;;7.30;99.90;;;;;;4990772;28;20466;-73
2022/01/23 18:10:23;;;;;;;10.07;3.60;;;7.30;99.90;;;;;;4984460;28;20050;-73
2022/01/23 18:12:52;;;;;;;4.65;2.33;;;7.30;99.90;;;;;;4966576;28;20023;-73
2022/01/23 18:15:18;;;;;;;6.15;3.13;;;7.30;99.90;;;;;;4987066;28;20022;-72
2022/01/23 18:17:43;;;;;;;16.73;5.80;;;7.30;99.90;;;;;;4985483;28;20444;-71
2022/01/23 18:20:09;;;;;;;4.88;2.30;;;7.30;99.90;;;;;;4985501;28;20046;-72
2022/01/23 18:22:35;;;;;;;13.25;4.85;;;7.30;99.90;;;;;;4981650;28;20089;-73
2022/01/23 18:25:03;;;;;;;5.32;2.10;;;7.30;99.90;;;;;;4976581;28;20031;-73
2022/01/23 18:27:29;;;;;;;3.97;2.45;;;7.30;99.90;;;;;;4986646;28;20055;-72
2022/01/23 18:29:55;;;;;;;3.20;2.03;;;7.30;99.90;;;;;;4970023;28;20050;-72
2022/01/23 18:32:24;;;;;;;11.52;2.88;;;7.30;99.90;;;;;;4984195;28;20026;-73
2022/01/23 18:34:51;;;;;;;2.72;1.65;;;7.30;99.90;;;;;;4981448;28;20034;-72
2022/01/23 18:37:16;;;;;;;4.43;2.40;;;7.30;99.90;;;;;;4981493;28;20045;-73
2022/01/23 18:39:43;;;;;;;4.28;2.22;;;7.20;99.90;;;;;;4968414;28;20058;-72
2022/01/23 18:42:08;;;;;;;3.47;2.05;;;7.20;99.90;;;;;;4987045;28;20038;-74
2022/01/23 18:44:35;;;;;;;6.22;2.22;;;7.30;99.90;;;;;;4969247;28;20022;-72
2022/01/23 18:47:05;;;;;;;7.30;2.22;;;7.20;99.90;;;;;;4987631;28;20029;-74
2022/01/23 18:49:31;;;;;;;4.95;2.15;;;7.20;99.90;;;;;;4987779;28;20023;-72
2022/01/23 18:52:00;;;;;;;5.78;2.20;;;7.20;99.90;;;;;;4987321;28;20054;-73
2022/01/23 18:57:02;;;;;;;5.10;2.35;;;7.20;99.90;;;;;;4985045;28;20045;-73
2022/01/23 18:59:29;;;;;;;4.80;2.70;;;7.10;99.90;;;;;;4986041;28;20026;-73
2022/01/23 19:01:59;;;;;;;3.50;2.03;;;7.10;99.90;;;;;;4998888;28;20022;-74
2022/01/23 19:04:36;;;;;;;9.82;3.45;;;7.10;99.90;;;;;;4986076;28;20034;-73
2022/01/23 19:07:31;;;;;;;5.82;2.45;;;7.10;99.90;;;;;;4984980;28;20170;-70
2022/01/23 19:09:54;;;;;;;6.13;2.75;;;7.20;99.90;;;;;;4984021;28;20035;-70
2022/01/23 19:12:26;;;;;;;4.45;1.80;;;7.10;99.90;;;;;;4985920;28;20026;-72
2022/01/23 19:14:54;;;;;;;4.60;2.35;;;7.10;99.90;;;;;;4982359;28;20062;-72
2022/01/23 19:17:20;;;;;;;4.50;2.33;;;7.10;99.90;;;;;;4989896;28;20046;-72
2022/01/23 19:19:46;;;;;;;7.80;3.15;;;7.10;99.90;;;;;;4981728;28;20034;-71
2022/01/23 19:22:11;;;;;;;10.93;3.42;;;7.00;99.90;;;;;;4985648;28;20156;-71
2022/01/23 19:24:37;;;;;;;9.15;3.60;;;7.00;99.90;;;;;;4984108;28;20031;-70
2022/01/23 19:27:03;;;;;;;5.15;2.50;;;7.00;99.90;;;;;;4982649;28;20034;-72
2022/01/23 19:29:32;;;;;;;9.32;2.53;;;6.90;99.90;;;;;;4982190;28;20027;-71